Time;durP1;ratioP1;P1;durP2;ratioP2;P2;SDS_P1;SDS_P2;PMS_P1;PMS_P2;Temp;Humidity;BMP_temperature;BMP_pressure;BME280_temperature;BME280_humidity;BME280_pressure;Samples;Min_cycle;Max_cycle;Signal;HPM_P1;HPM_P2
2023/10/13 00:00:42;;;;;;;31.23;16.93;;;15.40;99.90;;;;;;5110469;28;20464;-70
2023/10/13 00:03:14;;;;;;;27.73;16.33;;;15.40;99.90;;;;;;5109615;28;20564;-70
2023/10/13 00:05:42;;;;;;;32.47;17.17;;;15.40;99.90;;;;;;5109937;28;20867;-70
2023/10/13 00:08:10;;;;;;;27.43;15.27;;;15.40;99.90;;;;;;5109525;28;20799;-70
2023/10/13 00:10:37;;;;;;;30.17;15.50;;;15.40;99.90;;;;;;5106221;28;20461;-70
2023/10/13 00:13:11;;;;;;;27.73;15.30;;;15.40;99.90;;;;;;5112371;28;20515;-70
2023/10/13 00:15:46;;;;;;;29.07;14.20;;;15.40;99.90;;;;;;5113956;28;20994;-70
2023/10/13 00:18:13;;;;;;;30.37;15.93;;;15.50;99.90;;;;;;5113581;28;20528;-70
2023/10/13 00:20:47;;;;;;;27.77;14.87;;;15.50;99.90;;;;;;5113871;28;20756;-70
2023/10/13 00:23:15;;;;;;;28.67;15.23;;;15.50;99.90;;;;;;5113975;28;20483;-70
2023/10/13 00:25:49;;;;;;;28.83;15.90;;;15.50;99.90;;;;;;5113731;28;20909;-70
2023/10/13 00:28:23;;;;;;;28.60;15.37;;;15.50;99.90;;;;;;5113502;28;20467;-70
2023/10/13 00:30:52;;;;;;;29.07;16.17;;;15.50;99.90;;;;;;5113491;28;20520;-70
2023/10/13 00:33:19;;;;;;;30.33;15.57;;;15.50;99.90;;;;;;5111965;28;20424;-70
2023/10/13 00:35:47;;;;;;;36.03;15.87;;;15.50;99.90;;;;;;5113447;28;20424;-70
2023/10/13 00:38:16;;;;;;;28.70;15.63;;;15.50;99.90;;;;;;5113693;28;20511;-70
2023/10/13 00:40:51;;;;;;;22.83;15.83;;;15.50;99.90;;;;;;5113884;28;20436;-70
2023/10/13 00:43:35;;;;;;;28.83;14.93;;;15.40;99.90;;;;;;5120063;27;20419;-70
2023/10/13 00:46:07;;;;;;;25.00;14.73;;;15.40;99.90;;;;;;5113077;28;20743;-70
2023/10/13 00:48:42;;;;;;;22.93;14.80;;;15.50;99.90;;;;;;5112347;28;20424;-70
2023/10/13 00:51:17;;;;;;;25.37;14.30;;;15.50;99.90;;;;;;5113611;28;20430;-70
2023/10/13 00:53:44;;;;;;;32.87;16.30;;;15.50;99.90;;;;;;5111326;28;20930;-70
2023/10/13 00:56:19;;;;;;;21.90;14.70;;;15.50;99.90;;;;;;5112592;28;20470;-70
2023/10/13 00:58:46;;;;;;;25.77;14.47;;;15.50;99.90;;;;;;5106090;28;20411;-70
2023/10/13 01:01:21;;;;;;;22.70;15.07;;;15.50;99.90;;;;;;5113419;28;20450;-70
2023/10/13 01:03:48;;;;;;;25.07;14.70;;;15.50;99.90;;;;;;5113000;28;20513;-70
2023/10/13 01:06:20;;;;;;;21.13;14.87;;;15.50;99.90;;;;;;5112585;28;20474;-70
2023/10/13 01:08:50;;;;;;;26.23;14.87;;;15.50;99.90;;;;;;5111788;28;20950;-70
2023/10/13 01:11:18;;;;;;;23.67;15.10;;;15.50;99.90;;;;;;5112365;28;20461;-70
2023/10/13 01:13:46;;;;;;;21.73;14.27;;;15.50;99.90;;;;;;5112826;28;20481;-70
2023/10/13 01:16:16;;;;;;;25.37;16.20;;;15.50;99.90;;;;;;5113020;28;20477;-70
2023/10/13 01:18:47;;;;;;;25.17;15.23;;;15.40;99.90;;;;;;5111718;28;20428;-70
2023/10/13 01:21:20;;;;;;;29.17;15.47;;;15.50;99.90;;;;;;5112407;28;20432;-70
2023/10/13 01:23:48;;;;;;;28.93;15.53;;;15.40;99.90;;;;;;5111886;28;20485;-69
2023/10/13 01:26:21;;;;;;;29.93;16.10;;;15.40;99.90;;;;;;5112379;28;20444;-70
2023/10/13 01:28:50;;;;;;;26.40;16.40;;;15.50;99.90;;;;;;5112505;28;20454;-70
2023/10/13 01:31:27;;;;;;;32.77;15.97;;;15.50;99.90;;;;;;5112474;28;20657;-70
2023/10/13 01:33:54;;;;;;;27.83;16.00;;;15.50;99.90;;;;;;5111894;28;20477;-70
2023/10/13 01:36:22;;;;;;;30.50;16.23;;;15.40;99.90;;;;;;5111731;28;20444;-70
2023/10/13 01:38:50;;;;;;;27.00;16.23;;;15.40;99.90;;;;;;5111946;28;20906;-70
2023/10/13 01:41:17;;;;;;;32.77;18.13;;;15.40;99.90;;;;;;5112213;28;20515;-70
2023/10/13 01:43:42;;;;;;;29.37;17.83;;;15.40;99.90;;;;;;5118796;27;20965;-70
2023/10/13 01:46:13;;;;;;;25.70;16.93;;;15.40;99.90;;;;;;5112103;28;20486;-70
2023/10/13 01:48:40;;;;;;;34.33;18.60;;;15.40;99.90;;;;;;5111916;28;20204;-70
2023/10/13 01:51:09;;;;;;;31.67;16.13;;;15.40;99.90;;;;;;5112829;28;20485;-69
2023/10/13 01:53:36;;;;;;;25.00;16.03;;;15.40;99.90;;;;;;5111199;28;20830;-70
2023/10/13 01:56:10;;;;;;;27.23;16.00;;;15.40;99.90;;;;;;5111907;28;20444;-70
2023/10/13 01:58:36;;;;;;;30.53;17.30;;;15.40;99.90;;;;;;5110755;28;20424;-70
2023/10/13 02:01:07;;;;;;;29.83;17.60;;;15.40;99.90;;;;;;5111742;28;20511;-70
2023/10/13 02:03:33;;;;;;;27.33;16.87;;;15.40;99.90;;;;;;5111759;28;20802;-70
2023/10/13 02:06:04;;;;;;;30.27;17.67;;;15.30;99.90;;;;;;5111509;28;20482;-70
2023/10/13 02:08:30;;;;;;;26.73;16.77;;;15.30;99.90;;;;;;5111154;28;20532;-70
2023/10/13 02:10:58;;;;;;;28.23;16.97;;;15.30;99.90;;;;;;5111310;28;20947;-70
2023/10/13 02:13:26;;;;;;;40.73;18.40;;;15.30;99.90;;;;;;5111708;28;20432;-70
2023/10/13 02:15:57;;;;;;;33.37;16.33;;;15.30;99.90;;;;;;5110972;28;20450;-70
2023/10/13 02:18:27;;;;;;;25.37;16.37;;;15.20;99.90;;;;;;5111833;28;20435;-70
2023/10/13 02:21:04;;;;;;;29.37;16.47;;;15.30;99.90;;;;;;5112147;28;20559;-70
2023/10/13 02:23:30;;;;;;;33.67;17.30;;;15.30;99.90;;;;;;5111068;28;20464;-70
2023/10/13 02:26:02;;;;;;;32.03;16.50;;;15.30;99.90;;;;;;5111579;28;20441;-70
2023/10/13 02:28:30;;;;;;;33.03;17.00;;;15.30;99.90;;;;;;5111108;28;20527;-70
2023/10/13 02:30:57;;;;;;;25.37;16.20;;;15.40;99.90;;;;;;5111666;28;20439;-70
2023/10/13 02:33:29;;;;;;;26.30;15.90;;;15.40;99.90;;;;;;5111537;28;20420;-70
2023/10/13 02:35:57;;;;;;;29.37;15.60;;;15.40;99.90;;;;;;5109971;28;20460;-70
2023/10/13 02:38:27;;;;;;;26.73;16.73;;;15.40;99.90;;;;;;5110757;28;20949;-70
2023/10/13 02:40:54;;;;;;;26.77;15.80;;;15.40;99.90;;;;;;5111478;28;20417;-70
2023/10/13 02:43:22;;;;;;;31.50;16.00;;;15.40;99.90;;;;;;5117697;27;20525;-70
2023/10/13 02:45:58;;;;;;;25.87;15.97;;;15.40;99.90;;;;;;5111437;28;20473;-70
2023/10/13 02:48:25;;;;;;;27.40;16.73;;;15.40;99.90;;;;;;5110565;28;20447;-70
2023/10/13 02:50:57;;;;;;;31.03;16.43;;;15.40;99.90;;;;;;5111326;28;20428;-70
2023/10/13 02:53:24;;;;;;;23.93;14.27;;;15.40;99.90;;;;;;5110534;28;20448;-70
2023/10/13 02:55:55;;;;;;;24.10;15.20;;;15.40;99.90;;;;;;5110876;28;20429;-70
2023/10/13 02:58:22;;;;;;;29.67;14.47;;;15.40;99.90;;;;;;5110057;28;20910;-70
2023/10/13 03:00:48;;;;;;;24.80;15.73;;;15.40;99.90;;;;;;5110812;28;20786;-70
2023/10/13 03:03:18;;;;;;;27.90;15.83;;;15.40;99.90;;;;;;5110528;28;20465;-70
2023/10/13 03:05:45;;;;;;;24.43;15.10;;;15.40;99.90;;;;;;5110162;28;20641;-70
2023/10/13 03:08:25;;;;;;;24.47;15.57;;;15.30;99.90;;;;;;5110449;28;20432;-70
2023/10/13 03:10:54;;;;;;;22.77;15.00;;;15.30;99.90;;;;;;5110873;28;20420;-70
2023/10/13 03:13:20;;;;;;;23.90;15.10;;;15.30;99.90;;;;;;5109939;28;20454;-70
2023/10/13 03:15:47;;;;;;;22.40;14.40;;;15.30;99.90;;;;;;5110393;28;20566;-70
2023/10/13 03:18:18;;;;;;;19.30;14.23;;;15.30;99.90;;;;;;5109809;28;20508;-70
2023/10/13 03:20:44;;;;;;;24.33;14.63;;;15.30;99.90;;;;;;5110206;28;20449;-70
2023/10/13 03:23:10;;;;;;;21.40;13.07;;;15.20;99.90;;;;;;5110406;28;20416;-70
2023/10/13 03:25:42;;;;;;;24.33;14.70;;;15.20;99.90;;;;;;5110513;28;20219;-70
2023/10/13 03:28:11;;;;;;;23.63;14.97;;;15.20;99.90;;;;;;5110654;28;20553;-70
2023/10/13 03:30:38;;;;;;;22.63;14.87;;;15.10;99.90;;;;;;5109153;28;20427;-70
2023/10/13 03:33:09;;;;;;;22.03;14.17;;;15.20;99.90;;;;;;5110711;28;20940;-70
2023/10/13 03:35:42;;;;;;;19.80;13.00;;;15.10;99.90;;;;;;5108766;28;20478;-70
2023/10/13 03:38:16;;;;;;;25.87;15.50;;;15.10;99.90;;;;;;5110056;28;20511;-70
2023/10/13 03:40:48;;;;;;;22.77;15.70;;;15.00;99.90;;;;;;5109291;28;20442;-70
2023/10/13 03:43:16;;;;;;;27.50;15.80;;;15.00;99.90;;;;;;5110879;28;20461;-69
2023/10/13 03:45:47;;;;;;;23.80;15.50;;;15.00;99.90;;;;;;5110811;28;20981;-70
2023/10/13 03:48:28;;;;;;;32.13;16.40;;;14.90;99.90;;;;;;5114627;28;20434;-70
2023/10/13 03:51:03;;;;;;;25.80;15.30;;;15.00;99.90;;;;;;5113969;28;20421;-70
2023/10/13 03:53:33;;;;;;;28.87;16.57;;;15.00;99.90;;;;;;5114265;28;21014;-70
2023/10/13 03:56:08;;;;;;;23.40;15.20;;;14.90;99.90;;;;;;5113088;28;20511;-70
2023/10/13 03:58:35;;;;;;;32.23;14.70;;;15.00;99.90;;;;;;5113342;28;20434;-70
2023/10/13 04:01:03;;;;;;;29.30;15.43;;;15.00;99.90;;;;;;5114063;28;20412;-69
2023/10/13 04:03:56;;;;;;;25.00;14.30;;;15.10;99.90;;;;;;5113929;28;20917;-70
2023/10/13 04:06:19;;;;;;;25.97;14.50;;;15.10;99.90;;;;;;5113214;28;20443;-70
2023/10/13 04:08:48;;;;;;;25.17;15.83;;;15.10;99.90;;;;;;5114261;28;20469;-70
2023/10/13 04:16:50;;;;;;;30.87;15.67;;;15.10;99.90;;;;;;5098557;28;20525;-69
2023/10/13 04:19:22;;;;;;;32.67;15.90;;;15.10;99.90;;;;;;5114035;28;20560;-70
2023/10/13 04:21:58;;;;;;;31.03;16.50;;;15.10;99.90;;;;;;5114229;28;20456;-70
2023/10/13 04:24:59;;;;;;;29.63;15.70;;;15.10;99.90;;;;;;5113894;28;20495;-70
2023/10/13 04:27:53;;;;;;;35.57;15.50;;;15.20;99.90;;;;;;5112867;28;20436;-70
2023/10/13 04:30:27;;;;;;;28.77;17.67;;;15.20;99.90;;;;;;5114183;28;20439;-70
2023/10/13 04:33:35;;;;;;;25.23;14.90;;;15.20;99.90;;;;;;5113391;28;20429;-70
2023/10/13 04:36:13;;;;;;;29.43;15.63;;;15.20;99.90;;;;;;5108939;28;20448;-70
2023/10/13 04:38:55;;;;;;;40.63;16.97;;;15.20;99.90;;;;;;5110478;28;20440;-70
2023/10/13 04:41:23;;;;;;;26.20;17.67;;;15.20;99.90;;;;;;5113865;28;20816;-70
2023/10/13 04:43:55;;;;;;;25.77;17.30;;;15.20;99.90;;;;;;5114548;27;20422;-70
2023/10/13 04:46:35;;;;;;;25.50;15.97;;;15.20;99.90;;;;;;5113663;28;20436;-71
2023/10/13 04:49:09;;;;;;;32.20;16.70;;;15.20;99.90;;;;;;5108400;28;20464;-70
2023/10/13 04:51:58;;;;;;;34.33;17.90;;;15.30;99.90;;;;;;5110331;28;20976;-70
2023/10/13 04:54:26;;;;;;;32.60;16.97;;;15.30;99.90;;;;;;5113693;28;20423;-69
2023/10/13 04:57:23;;;;;;;30.60;17.40;;;15.30;99.90;;;;;;5113425;28;20485;-70
2023/10/13 05:47:23;;;;;;;36.77;20.20;;;15.60;99.90;;;;;;5110666;28;20428;-70
2023/10/13 05:50:03;;;;;;;33.60;19.63;;;15.70;99.90;;;;;;5109335;28;20450;-70
2023/10/13 06:28:45;;;;;;;34.97;18.63;;;15.80;99.90;;;;;;5107470;28;20517;-70
2023/10/13 06:31:21;;;;;;;36.20;16.80;;;15.80;99.90;;;;;;5107257;28;20446;-70
2023/10/13 06:33:49;;;;;;;31.73;17.60;;;15.80;99.90;;;;;;5107438;28;20468;-70
2023/10/13 06:36:17;;;;;;;33.60;17.70;;;15.80;99.90;;;;;;5107467;28;20440;-70
2023/10/13 06:38:44;;;;;;;28.80;17.07;;;15.80;99.90;;;;;;5106739;28;20458;-70
2023/10/13 06:41:19;;;;;;;25.57;15.67;;;15.80;99.90;;;;;;5107628;28;20869;-70
2023/10/13 06:43:58;;;;;;;31.63;15.97;;;15.80;99.90;;;;;;5107654;28;20505;-70
2023/10/13 06:46:28;;;;;;;26.67;15.10;;;15.80;99.90;;;;;;5107074;28;20787;-70
2023/10/13 06:48:59;;;;;;;44.23;17.03;;;15.80;99.90;;;;;;5106387;28;20514;-70
2023/10/13 06:51:30;;;;;;;28.47;14.20;;;15.60;99.90;;;;;;5107818;28;20421;-70
2023/10/13 06:53:57;;;;;;;31.37;15.20;;;15.80;99.90;;;;;;5107403;28;20432;-70
2023/10/13 06:56:27;;;;;;;29.57;15.73;;;15.80;99.90;;;;;;5106772;28;20451;-70
2023/10/13 06:58:59;;;;;;;29.03;14.97;;;15.80;99.90;;;;;;5107293;28;21000;-70
2023/10/13 07:01:26;;;;;;;26.80;15.20;;;15.80;99.90;;;;;;5106522;28;20428;-70
2023/10/13 07:03:53;;;;;;;31.93;15.27;;;15.90;99.90;;;;;;5106374;28;20921;-70
2023/10/13 07:06:21;;;;;;;33.23;12.93;;;15.80;99.90;;;;;;5107066;28;20481;-70
2023/10/13 07:08:51;;;;;;;27.07;13.63;;;15.90;99.90;;;;;;5105860;28;20994;-70
2023/10/13 07:11:22;;;;;;;32.40;14.30;;;16.00;99.90;;;;;;5106614;28;20425;-70
2023/10/13 07:13:51;;;;;;;28.03;12.83;;;16.10;99.90;;;;;;5105652;28;20855;-70
2023/10/13 07:16:18;;;;;;;19.13;11.63;;;16.10;99.90;;;;;;5107104;28;20522;-70
2023/10/13 07:18:52;;;;;;;28.20;12.90;;;16.20;99.90;;;;;;5104767;28;20544;-70
2023/10/13 07:21:30;;;;;;;27.13;11.90;;;16.30;99.90;;;;;;5105598;28;20552;-70
2023/10/13 07:24:08;;;;;;;25.03;12.17;;;16.30;99.90;;;;;;5105917;28;20453;-70
2023/10/13 07:26:35;;;;;;;34.50;13.10;;;16.30;99.90;;;;;;5104868;28;20460;-70
2023/10/13 07:29:02;;;;;;;23.23;11.73;;;16.40;99.90;;;;;;5105597;28;20445;-70
2023/10/13 07:31:28;;;;;;;20.83;11.70;;;16.40;99.90;;;;;;5106446;28;20434;-70
2023/10/13 07:34:04;;;;;;;23.80;10.60;;;16.50;99.90;;;;;;5106834;28;20432;-70
2023/10/13 07:36:39;;;;;;;23.50;11.53;;;16.50;99.90;;;;;;5106803;28;20476;-70
2023/10/13 07:39:20;;;;;;;19.97;10.93;;;16.50;99.90;;;;;;5106599;28;20897;-70
2023/10/13 07:41:51;;;;;;;20.60;11.10;;;16.50;99.90;;;;;;5106629;28;20420;-70
2023/10/13 07:44:19;;;;;;;17.53;11.03;;;16.60;99.90;;;;;;5107329;28;20416;-71
2023/10/13 07:46:52;;;;;;;24.13;11.63;;;16.60;99.90;;;;;;5104558;28;20493;-70
2023/10/13 07:49:20;;;;;;;32.43;12.80;;;16.60;99.90;;;;;;5105482;28;20456;-70
2023/10/13 07:51:49;;;;;;;19.43;11.60;;;16.60;99.90;;;;;;5106161;28;20460;-70
2023/10/13 07:54:21;;;;;;;30.17;11.50;;;16.70;99.90;;;;;;5106581;28;20438;-70
2023/10/13 07:56:48;;;;;;;27.97;11.97;;;16.70;99.90;;;;;;5106505;28;20951;-70
2023/10/13 07:59:15;;;;;;;22.37;11.53;;;16.60;99.90;;;;;;5104893;28;20428;-70
2023/10/13 08:01:43;;;;;;;25.60;11.73;;;16.80;99.90;;;;;;5104709;28;20438;-70
2023/10/13 08:04:12;;;;;;;25.40;11.47;;;16.70;99.90;;;;;;5105691;28;20473;-70
2023/10/13 08:06:40;;;;;;;28.73;12.10;;;16.70;99.90;;;;;;5105960;28;20612;-70
2023/10/13 08:09:08;;;;;;;26.33;10.27;;;16.70;99.90;;;;;;5106041;28;20988;-70
2023/10/13 08:11:37;;;;;;;19.67;11.40;;;16.70;99.90;;;;;;5106344;28;20457;-70
2023/10/13 08:14:22;;;;;;;20.70;11.33;;;16.70;99.90;;;;;;5106597;28;20969;-70
2023/10/13 08:16:54;;;;;;;20.10;11.37;;;16.70;99.90;;;;;;5106388;28;20477;-70
2023/10/13 08:19:26;;;;;;;22.77;11.53;;;16.70;99.90;;;;;;5106249;28;20985;-70
2023/10/13 08:21:57;;;;;;;22.20;11.20;;;16.70;99.90;;;;;;5105705;28;20408;-70
2023/10/13 08:24:28;;;;;;;21.43;11.27;;;16.80;99.90;;;;;;5105422;28;20511;-70
2023/10/13 08:26:57;;;;;;;21.30;10.77;;;16.90;99.90;;;;;;5106446;28;20492;-70
2023/10/13 08:32:20;;;;;;;25.33;10.30;;;17.00;99.90;;;;;;5110994;28;20630;-71
2023/10/13 08:35:22;;;;;;;20.27;10.77;;;17.00;99.90;;;;;;5109564;28;20439;-71
2023/10/13 08:37:59;;;;;;;25.47;10.63;;;17.10;99.90;;;;;;5110343;28;20461;-71
2023/10/13 08:40:56;;;;;;;25.87;11.20;;;17.20;99.90;;;;;;5109545;28;20428;-70
2023/10/13 08:43:39;;;;;;;20.87;9.73;;;17.20;99.90;;;;;;5108590;28;20445;-71
2023/10/13 08:46:07;;;;;;;30.23;11.27;;;17.30;99.90;;;;;;5109592;28;20481;-71
2023/10/13 08:48:34;;;;;;;22.30;11.37;;;17.30;99.90;;;;;;5109417;28;20893;-70
2023/10/13 08:51:31;;;;;;;23.37;11.43;;;17.30;99.90;;;;;;5109291;28;20462;-71
2023/10/13 08:54:08;;;;;;;24.37;10.67;;;17.30;99.90;;;;;;5108484;28;20536;-71
2023/10/13 08:56:46;;;;;;;14.80;10.43;;;17.30;99.90;;;;;;5109415;28;20472;-71
2023/10/13 08:59:22;;;;;;;22.77;11.83;;;17.30;99.90;;;;;;5109382;28;20434;-71
2023/10/13 09:01:59;;;;;;;28.33;11.90;;;17.40;99.90;;;;;;5106948;28;20449;-71
2023/10/13 09:04:31;;;;;;;21.93;11.37;;;17.40;99.90;;;;;;5110076;28;20450;-71
2023/10/13 09:07:15;;;;;;;22.50;11.60;;;17.40;99.90;;;;;;5109321;28;20477;-71
2023/10/13 09:10:11;;;;;;;19.93;11.57;;;17.50;99.90;;;;;;5109684;28;20943;-71
2023/10/13 09:13:00;;;;;;;29.40;11.17;;;17.60;99.90;;;;;;5109269;28;20571;-71
2023/10/13 09:15:59;;;;;;;22.80;11.50;;;17.70;99.90;;;;;;5108950;28;20553;-71
2023/10/13 09:18:42;;;;;;;21.77;10.90;;;17.80;99.90;;;;;;5108152;28;20432;-71
2023/10/13 09:21:29;;;;;;;21.43;11.20;;;17.80;99.90;;;;;;5108991;28;20458;-71
2023/10/13 09:24:17;;;;;;;21.73;11.57;;;17.80;99.90;;;;;;5109819;28;20442;-71
2023/10/13 09:26:44;;;;;;;25.17;11.20;;;17.70;99.90;;;;;;5107513;28;20485;-71
2023/10/13 09:29:18;;;;;;;30.07;11.90;;;17.70;99.90;;;;;;5107578;28;20458;-71
2023/10/13 09:31:47;;;;;;;26.77;12.20;;;17.80;99.90;;;;;;5106598;28;20432;-71
2023/10/13 09:34:20;;;;;;;23.07;11.43;;;17.80;99.90;;;;;;5109067;28;20510;-71
2023/10/13 09:36:55;;;;;;;26.37;11.50;;;17.90;99.90;;;;;;5108546;28;20461;-71
2023/10/13 09:39:29;;;;;;;17.80;11.37;;;18.00;99.90;;;;;;5109489;28;20498;-72
2023/10/13 09:41:59;;;;;;;21.33;11.00;;;18.20;99.90;;;;;;5109885;28;20457;-73
2023/10/13 09:44:30;;;;;;;25.37;10.97;;;18.40;99.90;;;;;;5109870;28;20495;-72
2023/10/13 09:47:03;;;;;;;24.77;10.80;;;18.50;99.90;;;;;;5110024;28;20501;-72
2023/10/13 09:49:44;;;;;;;23.53;9.90;;;18.60;99.90;;;;;;5110145;28;20461;-73
2023/10/13 09:52:18;;;;;;;28.03;11.10;;;18.70;99.90;;;;;;5108589;28;20540;-69
2023/10/13 09:54:59;;;;;;;17.70;9.87;;;18.70;99.90;;;;;;5108819;28;20453;-71
2023/10/13 09:57:34;;;;;;;30.83;11.40;;;18.70;99.90;;;;;;5107941;28;20458;-70
2023/10/13 10:00:26;;;;;;;19.20;10.53;;;18.80;99.90;;;;;;5108167;28;20452;-70
2023/10/13 10:02:58;;;;;;;23.27;10.73;;;18.80;99.90;;;;;;5107852;28;20789;-70
2023/10/13 10:05:25;;;;;;;16.77;10.20;;;18.90;99.90;;;;;;5106802;28;20449;-70
2023/10/13 10:07:58;;;;;;;34.77;10.40;;;19.00;99.90;;;;;;5107475;28;20477;-70
2023/10/13 10:10:36;;;;;;;31.03;10.53;;;19.00;99.90;;;;;;5108099;28;20453;-70
2023/10/13 10:13:16;;;;;;;18.17;9.00;;;19.00;99.90;;;;;;5107616;28;20465;-71
2023/10/13 10:15:47;;;;;;;16.97;9.93;;;19.10;99.90;;;;;;5107655;28;20545;-71
2023/10/13 10:18:22;;;;;;;22.77;9.67;;;19.10;99.90;;;;;;5107883;28;20446;-71
2023/10/13 10:20:51;;;;;;;27.23;9.60;;;19.20;99.90;;;;;;5107042;28;21042;-70
2023/10/13 10:23:26;;;;;;;14.03;8.33;;;19.30;99.90;;;;;;5107895;28;20549;-70
2023/10/13 10:26:04;;;;;;;19.73;8.30;;;19.50;99.90;;;;;;5107552;28;20476;-70
2023/10/13 10:28:36;;;;;;;28.43;10.43;;;19.60;99.90;;;;;;5107470;28;20548;-70
2023/10/13 10:31:09;;;;;;;18.20;10.30;;;19.60;99.90;;;;;;5107251;28;20811;-71
2023/10/13 10:33:36;;;;;;;24.60;9.30;;;19.60;99.90;;;;;;5107213;28;20935;-70
2023/10/13 10:36:05;;;;;;;19.67;9.53;;;19.60;99.90;;;;;;5106466;28;20473;-71
2023/10/13 10:38:34;;;;;;;17.60;9.57;;;19.60;99.90;;;;;;5106645;28;20570;-71
2023/10/13 10:41:04;;;;;;;18.00;10.27;;;19.60;99.90;;;;;;5106770;28;20457;-70
2023/10/13 10:43:42;;;;;;;25.60;9.20;;;19.60;99.90;;;;;;5106978;28;20454;-71
2023/10/13 10:46:11;;;;;;;29.40;9.20;;;19.60;99.90;;;;;;5107328;28;20489;-71
2023/10/13 10:48:42;;;;;;;18.00;8.37;;;19.70;99.90;;;;;;5107234;28;20430;-69
2023/10/13 10:51:15;;;;;;;21.07;9.23;;;19.80;99.90;;;;;;5106713;28;20454;-69
2023/10/13 10:53:46;;;;;;;15.37;8.60;;;19.90;99.90;;;;;;5107023;28;20546;-70
2023/10/13 10:56:24;;;;;;;19.60;9.50;;;19.90;99.90;;;;;;5106308;28;21748;-70
2023/10/13 10:58:55;;;;;;;17.77;9.80;;;19.90;99.90;;;;;;5106776;28;20478;-69
2023/10/13 11:01:24;;;;;;;14.87;9.67;;;19.90;99.90;;;;;;5106824;28;20465;-70
2023/10/13 11:03:57;;;;;;;18.10;10.00;;;19.80;99.90;;;;;;5106476;28;20546;-70
2023/10/13 11:06:25;;;;;;;17.53;9.90;;;19.80;99.90;;;;;;5106175;28;20489;-69
2023/10/13 11:09:03;;;;;;;23.90;11.20;;;19.70;99.90;;;;;;5106672;28;20552;-69
2023/10/13 11:11:35;;;;;;;14.83;9.60;;;19.60;99.90;;;;;;5109844;28;20457;-70
2023/10/13 11:14:13;;;;;;;18.00;10.93;;;19.60;99.90;;;;;;5107508;28;20443;-70
2023/10/13 11:16:53;;;;;;;32.63;10.43;;;19.70;99.90;;;;;;5106792;28;20804;-69
2023/10/13 11:19:27;;;;;;;16.70;9.07;;;19.80;99.90;;;;;;5106781;28;20461;-70
2023/10/13 11:21:55;;;;;;;19.77;9.80;;;19.90;99.90;;;;;;5105947;28;20454;-70
2023/10/13 11:24:22;;;;;;;18.53;9.70;;;20.00;99.90;;;;;;5106490;28;20548;-70
2023/10/13 11:26:54;;;;;;;17.63;8.90;;;20.10;99.90;;;;;;5103594;28;20508;-70
2023/10/13 11:29:33;;;;;;;20.00;9.37;;;20.70;99.90;;;;;;5106196;28;20481;-70
2023/10/13 11:32:02;;;;;;;16.03;9.53;;;20.90;99.90;;;;;;5106395;28;20499;-70
2023/10/13 11:34:39;;;;;;;20.20;8.93;;;21.00;99.90;;;;;;5106076;28;21127;-70
2023/10/13 11:37:28;;;;;;;16.30;8.60;;;21.10;99.90;;;;;;5105785;28;21004;-70
2023/10/13 11:39:54;;;;;;;17.60;9.17;;;21.20;99.90;;;;;;5105412;28;20548;-70
2023/10/13 11:42:20;;;;;;;16.30;10.03;;;21.30;99.90;;;;;;5105755;28;20454;-71
2023/10/13 11:45:01;;;;;;;31.20;10.73;;;21.40;99.90;;;;;;5106130;28;20446;-70
2023/10/13 11:47:47;;;;;;;16.20;8.87;;;21.40;99.90;;;;;;5106577;28;20485;-70
2023/10/13 11:50:26;;;;;;;18.83;8.33;;;21.50;99.90;;;;;;5106202;28;20899;-71
2023/10/13 11:52:53;;;;;;;13.73;9.07;;;21.70;99.90;;;;;;5106806;28;20454;-70
2023/10/13 11:55:20;;;;;;;15.73;8.70;;;21.70;99.90;;;;;;5105991;28;21822;-71
2023/10/13 11:57:46;;;;;;;15.60;9.07;;;21.90;99.90;;;;;;5104162;28;20464;-71
2023/10/13 12:00:26;;;;;;;14.70;8.30;;;21.90;99.90;;;;;;5106216;28;20426;-69
2023/10/13 12:06:05;;;;;;;29.83;12.50;;;22.10;99.90;;;;;;5106202;28;21841;-70
2023/10/13 12:08:38;;;;;;;13.30;7.43;;;22.30;99.90;;;;;;5110349;28;20434;-71
2023/10/13 12:11:30;;;;;;;15.17;8.80;;;22.60;99.90;;;;;;5110927;28;20527;-74
2023/10/13 12:13:51;;;;;;;16.83;8.23;;;22.80;99.90;;;;;;5107602;28;20445;-73
2023/10/13 12:16:19;;;;;;;20.93;9.30;;;22.90;99.90;;;;;;5109075;28;20830;-74
2023/10/13 12:18:53;;;;;;;14.53;7.77;;;22.90;99.90;;;;;;5109315;28;20487;-73
2023/10/13 12:21:21;;;;;;;18.23;8.87;;;22.80;99.90;;;;;;5109645;28;20462;-73
2023/10/13 12:23:47;;;;;;;15.10;8.40;;;22.70;99.90;;;;;;5109892;28;20996;-73
2023/10/13 12:26:19;;;;;;;12.73;8.03;;;22.70;99.90;;;;;;5109767;28;20493;-74
2023/10/13 12:28:51;;;;;;;22.47;8.60;;;22.70;99.90;;;;;;5110216;28;20481;-73
2023/10/13 12:31:26;;;;;;;18.97;8.10;;;22.70;99.90;;;;;;5110065;28;20445;-73
2023/10/13 12:33:57;;;;;;;15.47;7.47;;;22.80;99.90;;;;;;5110204;28;20464;-74
2023/10/13 12:36:41;;;;;;;11.27;7.90;;;22.70;99.90;;;;;;5109354;28;20477;-73
2023/10/13 12:50:34;;;;;;;17.23;7.87;;;22.60;99.90;;;;;;5109347;28;20456;-73
2023/10/13 12:53:01;;;;;;;12.70;7.77;;;22.60;99.90;;;;;;5109707;28;20572;-74
2023/10/13 12:55:27;;;;;;;13.03;7.80;;;22.60;99.90;;;;;;5108734;28;20454;-73
2023/10/13 12:57:54;;;;;;;10.00;7.17;;;22.50;99.90;;;;;;5108564;28;20461;-73
2023/10/13 13:00:25;;;;;;;19.50;7.53;;;22.60;99.90;;;;;;5108715;28;20884;-74
2023/10/13 13:02:55;;;;;;;10.13;6.80;;;22.40;99.90;;;;;;5109047;28;20453;-71
2023/10/13 13:05:28;;;;;;;15.17;7.20;;;22.50;99.90;;;;;;5108655;28;20796;-74
2023/10/13 13:07:55;;;;;;;11.90;6.90;;;22.50;99.90;;;;;;5108719;28;20790;-73
2023/10/13 13:10:34;;;;;;;14.97;6.60;;;22.40;99.90;;;;;;5107709;28;20914;-71
2023/10/13 13:13:02;;;;;;;19.90;7.37;;;22.30;99.90;;;;;;5109298;28;20499;-72
2023/10/13 13:15:29;;;;;;;10.70;7.00;;;22.30;99.90;;;;;;5109394;28;20491;-73
2023/10/13 13:17:55;;;;;;;10.23;7.00;;;22.30;99.90;;;;;;5109109;28;20458;-73
2023/10/13 13:20:28;;;;;;;12.50;6.50;;;22.30;99.90;;;;;;5107828;28;20518;-72
2023/10/13 13:22:55;;;;;;;12.60;7.97;;;22.30;99.90;;;;;;5109706;28;20446;-72
2023/10/13 13:25:26;;;;;;;17.37;7.97;;;22.40;99.90;;;;;;5108994;28;21694;-72
2023/10/13 13:27:53;;;;;;;12.50;7.20;;;22.40;99.90;;;;;;5108944;28;20485;-72
2023/10/13 13:30:21;;;;;;;16.43;6.70;;;22.40;99.90;;;;;;5108682;28;20822;-72
2023/10/13 13:32:48;;;;;;;11.47;7.77;;;22.40;99.90;;;;;;5108466;28;20450;-73
2023/10/13 13:35:18;;;;;;;14.60;7.27;;;22.40;99.90;;;;;;5108630;28;20519;-73
2023/10/13 13:37:46;;;;;;;10.50;7.73;;;22.40;99.90;;;;;;5107871;28;20469;-73
2023/10/13 13:40:18;;;;;;;13.80;8.13;;;22.50;99.90;;;;;;5107722;28;20458;-73
2023/10/13 13:42:45;;;;;;;11.07;7.30;;;22.50;99.90;;;;;;5109023;28;20452;-73
2023/10/13 13:45:28;;;;;;;13.00;6.77;;;22.50;99.90;;;;;;5108321;28;20818;-73
2023/10/13 13:47:55;;;;;;;22.90;14.80;;;22.50;99.90;;;;;;5108638;28;20484;-73
2023/10/13 13:50:25;;;;;;;35.43;18.47;;;22.60;99.90;;;;;;5107708;28;20957;-73
2023/10/13 13:52:55;;;;;;;21.90;13.20;;;22.60;99.90;;;;;;5108946;28;20446;-72
2023/10/13 13:55:23;;;;;;;15.50;8.60;;;22.60;99.90;;;;;;5107777;28;21157;-73
2023/10/13 13:57:50;;;;;;;10.37;6.47;;;22.60;99.90;;;;;;5108032;28;20841;-73
2023/10/13 14:00:18;;;;;;;13.10;7.10;;;22.60;99.90;;;;;;5107303;28;20514;-72
2023/10/13 14:02:47;;;;;;;11.70;6.80;;;22.50;99.90;;;;;;5108424;28;20449;-72
2023/10/13 14:05:16;;;;;;;15.23;7.23;;;22.60;99.90;;;;;;5108211;28;20951;-72
2023/10/13 14:07:43;;;;;;;21.97;7.40;;;22.60;99.90;;;;;;5107946;28;20477;-72
2023/10/13 14:10:18;;;;;;;13.80;7.33;;;22.60;99.90;;;;;;5107161;28;20484;-72
2023/10/13 14:12:44;;;;;;;9.23;6.63;;;22.60;99.90;;;;;;5106451;28;20468;-72
2023/10/13 14:15:23;;;;;;;16.70;6.97;;;22.60;99.90;;;;;;5106682;28;20453;-73
2023/10/13 14:17:50;;;;;;;11.83;6.60;;;22.70;99.90;;;;;;5107541;28;20310;-72
2023/10/13 14:20:18;;;;;;;12.97;6.20;;;22.50;99.90;;;;;;5107171;28;20450;-72
2023/10/13 14:22:47;;;;;;;9.47;5.60;;;22.60;99.90;;;;;;5107055;28;20446;-72
2023/10/13 14:25:15;;;;;;;9.57;5.93;;;22.60;99.90;;;;;;5106939;28;21058;-72
2023/10/13 14:27:42;;;;;;;11.30;6.23;;;22.60;99.90;;;;;;5106836;28;21176;-71
2023/10/13 14:30:09;;;;;;;16.53;7.20;;;22.60;99.90;;;;;;5104759;28;20442;-72
2023/10/13 14:32:40;;;;;;;22.93;6.80;;;22.70;99.90;;;;;;5106565;28;20434;-71
2023/10/13 14:35:14;;;;;;;10.40;6.77;;;22.70;99.90;;;;;;5106980;28;20446;-72
2023/10/13 14:37:41;;;;;;;14.03;7.00;;;22.70;99.90;;;;;;5107126;28;20978;-70
2023/10/13 14:40:12;;;;;;;17.00;6.07;;;22.80;99.90;;;;;;5105562;28;20446;-70
2023/10/13 14:42:41;;;;;;;12.40;6.57;;;22.80;99.90;;;;;;5107620;28;20442;-70